sensor_id;sensor_type;location;lat;lon;timestamp;temperature;humidity
8858;DHT22;4465;50.904;4.696;2022-09-23T00:01:03;11.20;99.90
8858;DHT22;4465;50.904;4.696;2022-09-23T00:03:30;11.10;99.90
8858;DHT22;4465;50.904;4.696;2022-09-23T00:06:05;11.10;99.90
8858;DHT22;4465;50.904;4.696;2022-09-23T00:08:32;11.10;99.90
8858;DHT22;4465;50.904;4.696;2022-09-23T00:11:08;11.10;99.90
8858;DHT22;4465;50.904;4.696;2022-09-23T00:13:35;11.10;99.90
8858;DHT22;4465;50.904;4.696;2022-09-23T00:16:07;11.00;99.90
8858;DHT22;4465;50.904;4.696;2022-09-23T00:18:35;11.00;99.90
8858;DHT22;4465;50.904;4.696;2022-09-23T00:21:06;11.00;99.90
8858;DHT22;4465;50.904;4.696;2022-09-23T00:23:33;11.00;99.90
8858;DHT22;4465;50.904;4.696;2022-09-23T00:26:01;11.00;99.90
8858;DHT22;4465;50.904;4.696;2022-09-23T00:28:29;11.00;99.90
8858;DHT22;4465;50.904;4.696;2022-09-23T00:31:00;11.00;99.90
8858;DHT22;4465;50.904;4.696;2022-09-23T00:33:28;11.00;99.90
8858;DHT22;4465;50.904;4.696;2022-09-23T00:36:02;10.90;99.90
8858;DHT22;4465;50.904;4.696;2022-09-23T00:38:32;10.90;99.90
8858;DHT22;4465;50.904;4.696;2022-09-23T00:40:59;10.80;99.90
8858;DHT22;4465;50.904;4.696;2022-09-23T00:43:46;10.80;99.90
8858;DHT22;4465;50.904;4.696;2022-09-23T00:46:19;10.80;99.90
8858;DHT22;4465;50.904;4.696;2022-09-23T00:48:51;10.80;99.90
8858;DHT22;4465;50.904;4.696;2022-09-23T00:51:24;10.70;99.90
8858;DHT22;4465;50.904;4.696;2022-09-23T00:53:56;10.70;99.90
8858;DHT22;4465;50.904;4.696;2022-09-23T00:56:27;10.70;99.90
8858;DHT22;4465;50.904;4.696;2022-09-23T00:58:58;10.70;99.90
8858;DHT22;4465;50.904;4.696;2022-09-23T01:01:25;10.70;99.90
8858;DHT22;4465;50.904;4.696;2022-09-23T01:03:52;10.60;99.90
8858;DHT22;4465;50.904;4.696;2022-09-23T01:06:24;10.60;99.90
8858;DHT22;4465;50.904;4.696;2022-09-23T01:08:50;10.60;99.90
8858;DHT22;4465;50.904;4.696;2022-09-23T01:11:32;10.50;99.90
8858;DHT22;4465;50.904;4.696;2022-09-23T01:14:20;10.50;99.90
8858;DHT22;4465;50.904;4.696;2022-09-23T01:17:16;10.50;99.90
8858;DHT22;4465;50.904;4.696;2022-09-23T01:22:57;10.40;99.90
8858;DHT22;4465;50.904;4.696;2022-09-23T01:36:38;10.30;99.90
8858;DHT22;4465;50.904;4.696;2022-09-23T01:44:19;10.20;99.90
8858;DHT22;4465;50.904;4.696;2022-09-23T01:46:51;10.20;99.90
8858;DHT22;4465;50.904;4.696;2022-09-23T01:49:32;10.30;99.90
8858;DHT22;4465;50.904;4.696;2022-09-23T01:52:08;10.20;99.90
8858;DHT22;4465;50.904;4.696;2022-09-23T01:54:43;10.20;99.90
8858;DHT22;4465;50.904;4.696;2022-09-23T01:57:17;10.20;99.90
8858;DHT22;4465;50.904;4.696;2022-09-23T01:59:55;10.20;99.90
8858;DHT22;4465;50.904;4.696;2022-09-23T02:02:59;10.20;99.90
8858;DHT22;4465;50.904;4.696;2022-09-23T02:05:28;10.20;99.90
8858;DHT22;4465;50.904;4.696;2022-09-23T02:08:05;10.20;99.90
8858;DHT22;4465;50.904;4.696;2022-09-23T02:13:22;10.20;99.90
8858;DHT22;4465;50.904;4.696;2022-09-23T02:15:52;10.20;99.90
8858;DHT22;4465;50.904;4.696;2022-09-23T02:18:47;10.20;99.90
8858;DHT22;4465;50.904;4.696;2022-09-23T02:21:16;10.20;99.90
8858;DHT22;4465;50.904;4.696;2022-09-23T02:23:46;10.20;99.90
8858;DHT22;4465;50.904;4.696;2022-09-23T02:26:29;10.20;99.90
8858;DHT22;4465;50.904;4.696;2022-09-23T02:31:30;10.20;99.90
8858;DHT22;4465;50.904;4.696;2022-09-23T02:37:20;10.10;99.90
8858;DHT22;4465;50.904;4.696;2022-09-23T02:39:54;10.10;99.90
8858;DHT22;4465;50.904;4.696;2022-09-23T02:45:23;10.10;99.90
8858;DHT22;4465;50.904;4.696;2022-09-23T02:47:56;10.10;99.90
8858;DHT22;4465;50.904;4.696;2022-09-23T02:50:23;10.10;99.90
8858;DHT22;4465;50.904;4.696;2022-09-23T02:52:49;10.10;99.90
8858;DHT22;4465;50.904;4.696;2022-09-23T02:55:16;10.10;99.90
8858;DHT22;4465;50.904;4.696;2022-09-23T02:57:44;10.00;99.90
8858;DHT22;4465;50.904;4.696;2022-09-23T03:00:11;10.00;99.90
8858;DHT22;4465;50.904;4.696;2022-09-23T03:03:02;10.00;99.90
8858;DHT22;4465;50.904;4.696;2022-09-23T03:05:35;10.00;99.90
8858;DHT22;4465;50.904;4.696;2022-09-23T03:11:05;10.00;99.90
8858;DHT22;4465;50.904;4.696;2022-09-23T03:13:45;10.00;99.90
8858;DHT22;4465;50.904;4.696;2022-09-23T03:16:37;10.00;99.90
8858;DHT22;4465;50.904;4.696;2022-09-23T03:22:33;9.90;99.90
8858;DHT22;4465;50.904;4.696;2022-09-23T03:25:05;9.90;99.90
8858;DHT22;4465;50.904;4.696;2022-09-23T03:27:34;9.90;99.90
8858;DHT22;4465;50.904;4.696;2022-09-23T03:30:05;9.90;99.90
8858;DHT22;4465;50.904;4.696;2022-09-23T03:32:33;9.90;99.90
8858;DHT22;4465;50.904;4.696;2022-09-23T03:35:00;9.90;99.90
8858;DHT22;4465;50.904;4.696;2022-09-23T03:37:39;9.90;99.90
8858;DHT22;4465;50.904;4.696;2022-09-23T03:40:28;9.80;99.90
8858;DHT22;4465;50.904;4.696;2022-09-23T03:42:59;9.80;99.90
8858;DHT22;4465;50.904;4.696;2022-09-23T03:45:29;9.80;99.90
8858;DHT22;4465;50.904;4.696;2022-09-23T03:47:57;9.80;99.90
8858;DHT22;4465;50.904;4.696;2022-09-23T03:50:23;9.80;99.90
8858;DHT22;4465;50.904;4.696;2022-09-23T03:52:49;9.80;99.90
8858;DHT22;4465;50.904;4.696;2022-09-23T03:55:16;9.80;99.90
8858;DHT22;4465;50.904;4.696;2022-09-23T03:57:43;9.80;99.90
8858;DHT22;4465;50.904;4.696;2022-09-23T04:00:11;9.80;99.90
8858;DHT22;4465;50.904;4.696;2022-09-23T04:02:37;9.80;99.90
8858;DHT22;4465;50.904;4.696;2022-09-23T04:05:04;9.80;99.90
8858;DHT22;4465;50.904;4.696;2022-09-23T04:07:31;9.80;99.90
8858;DHT22;4465;50.904;4.696;2022-09-23T04:09:57;9.90;99.90
8858;DHT22;4465;50.904;4.696;2022-09-23T04:12:23;9.90;99.90
8858;DHT22;4465;50.904;4.696;2022-09-23T04:14:52;9.90;99.90
8858;DHT22;4465;50.904;4.696;2022-09-23T04:17:18;9.90;99.90
8858;DHT22;4465;50.904;4.696;2022-09-23T04:19:44;9.90;99.90
8858;DHT22;4465;50.904;4.696;2022-09-23T04:22:11;9.90;99.90
8858;DHT22;4465;50.904;4.696;2022-09-23T04:24:37;9.90;99.90
8858;DHT22;4465;50.904;4.696;2022-09-23T04:27:04;9.90;99.90
8858;DHT22;4465;50.904;4.696;2022-09-23T04:29:32;9.90;99.90
8858;DHT22;4465;50.904;4.696;2022-09-23T04:31:59;10.00;99.90
8858;DHT22;4465;50.904;4.696;2022-09-23T04:34:26;9.90;99.90
8858;DHT22;4465;50.904;4.696;2022-09-23T04:36:54;9.90;99.90
8858;DHT22;4465;50.904;4.696;2022-09-23T04:39:20;9.90;99.90
8858;DHT22;4465;50.904;4.696;2022-09-23T04:41:46;10.00;99.90
8858;DHT22;4465;50.904;4.696;2022-09-23T04:44:14;10.00;99.90
8858;DHT22;4465;50.904;4.696;2022-09-23T04:46:41;10.00;99.90
8858;DHT22;4465;50.904;4.696;2022-09-23T04:49:12;10.00;99.90
8858;DHT22;4465;50.904;4.696;2022-09-23T04:51:41;10.00;99.90
8858;DHT22;4465;50.904;4.696;2022-09-23T04:54:11;10.10;99.90
8858;DHT22;4465;50.904;4.696;2022-09-23T04:56:39;10.00;99.90
8858;DHT22;4465;50.904;4.696;2022-09-23T04:59:07;10.00;99.90
8858;DHT22;4465;50.904;4.696;2022-09-23T05:01:34;10.00;99.90
8858;DHT22;4465;50.904;4.696;2022-09-23T05:04:03;10.10;99.90
8858;DHT22;4465;50.904;4.696;2022-09-23T05:06:33;10.10;99.90
8858;DHT22;4465;50.904;4.696;2022-09-23T05:09:04;10.10;99.90
8858;DHT22;4465;50.904;4.696;2022-09-23T05:11:32;10.10;99.90
8858;DHT22;4465;50.904;4.696;2022-09-23T05:13:58;10.10;99.90
8858;DHT22;4465;50.904;4.696;2022-09-23T05:16:27;10.20;99.90
8858;DHT22;4465;50.904;4.696;2022-09-23T05:18:54;10.20;99.90
8858;DHT22;4465;50.904;4.696;2022-09-23T05:21:22;10.30;99.90
8858;DHT22;4465;50.904;4.696;2022-09-23T05:23:51;10.20;99.90
8858;DHT22;4465;50.904;4.696;2022-09-23T05:26:22;10.30;99.90
8858;DHT22;4465;50.904;4.696;2022-09-23T05:28:50;10.20;99.90
8858;DHT22;4465;50.904;4.696;2022-09-23T05:31:18;10.20;99.90
8858;DHT22;4465;50.904;4.696;2022-09-23T05:33:49;10.20;99.90
8858;DHT22;4465;50.904;4.696;2022-09-23T05:36:17;10.20;99.90
8858;DHT22;4465;50.904;4.696;2022-09-23T05:38:43;10.20;99.90
8858;DHT22;4465;50.904;4.696;2022-09-23T05:41:12;10.20;99.90
8858;DHT22;4465;50.904;4.696;2022-09-23T05:43:38;10.20;99.90
8858;DHT22;4465;50.904;4.696;2022-09-23T05:48:37;10.20;99.90
8858;DHT22;4465;50.904;4.696;2022-09-23T05:51:05;10.20;99.90
8858;DHT22;4465;50.904;4.696;2022-09-23T05:53:38;10.20;99.90
8858;DHT22;4465;50.904;4.696;2022-09-23T05:56:05;10.20;99.90
8858;DHT22;4465;50.904;4.696;2022-09-23T05:58:36;10.20;99.90
8858;DHT22;4465;50.904;4.696;2022-09-23T06:01:13;10.20;99.90
8858;DHT22;4465;50.904;4.696;2022-09-23T06:03:40;10.10;99.90
8858;DHT22;4465;50.904;4.696;2022-09-23T06:06:09;10.10;99.90
8858;DHT22;4465;50.904;4.696;2022-09-23T06:08:36;10.10;99.90
8858;DHT22;4465;50.904;4.696;2022-09-23T06:11:06;10.10;99.90
8858;DHT22;4465;50.904;4.696;2022-09-23T06:13:34;10.10;99.90
8858;DHT22;4465;50.904;4.696;2022-09-23T06:19:55;10.10;99.90
8858;DHT22;4465;50.904;4.696;2022-09-23T06:22:23;10.10;99.90
8858;DHT22;4465;50.904;4.696;2022-09-23T06:24:50;10.10;99.90
8858;DHT22;4465;50.904;4.696;2022-09-23T06:27:16;10.10;99.90
8858;DHT22;4465;50.904;4.696;2022-09-23T06:29:42;10.10;99.90
8858;DHT22;4465;50.904;4.696;2022-09-23T06:32:08;10.10;99.90
8858;DHT22;4465;50.904;4.696;2022-09-23T06:34:34;10.10;99.90
8858;DHT22;4465;50.904;4.696;2022-09-23T06:37:00;10.10;99.90
8858;DHT22;4465;50.904;4.696;2022-09-23T06:39:26;10.10;99.90
8858;DHT22;4465;50.904;4.696;2022-09-23T06:41:53;10.20;99.90
8858;DHT22;4465;50.904;4.696;2022-09-23T06:44:19;10.20;99.90
8858;DHT22;4465;50.904;4.696;2022-09-23T06:46:49;10.30;99.90
8858;DHT22;4465;50.904;4.696;2022-09-23T06:49:17;10.30;99.90
8858;DHT22;4465;50.904;4.696;2022-09-23T06:51:45;10.40;99.90
8858;DHT22;4465;50.904;4.696;2022-09-23T06:54:11;10.50;99.90
8858;DHT22;4465;50.904;4.696;2022-09-23T06:56:41;10.50;99.90
8858;DHT22;4465;50.904;4.696;2022-09-23T06:59:11;10.60;99.90
8858;DHT22;4465;50.904;4.696;2022-09-23T07:01:37;10.60;99.90
8858;DHT22;4465;50.904;4.696;2022-09-23T07:04:03;10.70;99.90
8858;DHT22;4465;50.904;4.696;2022-09-23T07:06:29;10.70;99.90
8858;DHT22;4465;50.904;4.696;2022-09-23T07:08:56;10.80;99.90
8858;DHT22;4465;50.904;4.696;2022-09-23T07:11:22;10.90;99.90
8858;DHT22;4465;50.904;4.696;2022-09-23T07:13:48;11.10;99.90
8858;DHT22;4465;50.904;4.696;2022-09-23T07:16:17;11.00;99.90
8858;DHT22;4465;50.904;4.696;2022-09-23T07:18:42;11.10;99.90
8858;DHT22;4465;50.904;4.696;2022-09-23T07:21:14;11.20;99.90
8858;DHT22;4465;50.904;4.696;2022-09-23T07:23:45;11.20;99.90
8858;DHT22;4465;50.904;4.696;2022-09-23T07:26:13;11.20;99.90
8858;DHT22;4465;50.904;4.696;2022-09-23T07:28:39;11.30;99.90
8858;DHT22;4465;50.904;4.696;2022-09-23T07:31:11;11.40;99.90
8858;DHT22;4465;50.904;4.696;2022-09-23T07:33:39;11.40;99.90
8858;DHT22;4465;50.904;4.696;2022-09-23T07:36:17;11.50;99.90
8858;DHT22;4465;50.904;4.696;2022-09-23T07:38:44;11.60;99.90
8858;DHT22;4465;50.904;4.696;2022-09-23T07:41:15;11.60;99.90
8858;DHT22;4465;50.904;4.696;2022-09-23T07:43:45;11.60;99.90
8858;DHT22;4465;50.904;4.696;2022-09-23T07:46:14;11.70;99.90
8858;DHT22;4465;50.904;4.696;2022-09-23T07:48:42;11.70;99.90
8858;DHT22;4465;50.904;4.696;2022-09-23T07:51:19;11.80;99.90
8858;DHT22;4465;50.904;4.696;2022-09-23T07:53:50;11.80;99.90
8858;DHT22;4465;50.904;4.696;2022-09-23T07:56:17;11.90;99.90
8858;DHT22;4465;50.904;4.696;2022-09-23T07:58:45;11.90;99.90
8858;DHT22;4465;50.904;4.696;2022-09-23T08:01:29;11.90;99.90
8858;DHT22;4465;50.904;4.696;2022-09-23T08:03:57;12.00;99.90
8858;DHT22;4465;50.904;4.696;2022-09-23T08:06:23;12.10;99.90
8858;DHT22;4465;50.904;4.696;2022-09-23T08:08:50;12.00;99.90
8858;DHT22;4465;50.904;4.696;2022-09-23T08:11:17;12.10;99.90
8858;DHT22;4465;50.904;4.696;2022-09-23T08:13:43;12.10;99.90
8858;DHT22;4465;50.904;4.696;2022-09-23T08:16:09;12.10;99.90
8858;DHT22;4465;50.904;4.696;2022-09-23T08:18:36;12.20;99.90
8858;DHT22;4465;50.904;4.696;2022-09-23T08:21:03;12.20;99.90
8858;DHT22;4465;50.904;4.696;2022-09-23T08:23:31;12.30;99.90
8858;DHT22;4465;50.904;4.696;2022-09-23T08:26:04;12.40;99.90
8858;DHT22;4465;50.904;4.696;2022-09-23T08:28:31;12.40;99.90
8858;DHT22;4465;50.904;4.696;2022-09-23T08:31:00;12.40;99.90
8858;DHT22;4465;50.904;4.696;2022-09-23T08:33:26;12.50;99.90
8858;DHT22;4465;50.904;4.696;2022-09-23T08:35:57;12.60;99.90
8858;DHT22;4465;50.904;4.696;2022-09-23T08:38:24;12.70;99.90
8858;DHT22;4465;50.904;4.696;2022-09-23T08:40:54;12.70;99.90
8858;DHT22;4465;50.904;4.696;2022-09-23T08:43:30;12.70;99.90
8858;DHT22;4465;50.904;4.696;2022-09-23T08:46:07;12.80;99.90
8858;DHT22;4465;50.904;4.696;2022-09-23T08:48:45;12.90;99.90
8858;DHT22;4465;50.904;4.696;2022-09-23T08:51:35;13.00;99.90
8858;DHT22;4465;50.904;4.696;2022-09-23T08:54:04;13.10;99.90
8858;DHT22;4465;50.904;4.696;2022-09-23T08:56:33;13.20;99.90
8858;DHT22;4465;50.904;4.696;2022-09-23T09:01:58;13.30;99.90
8858;DHT22;4465;50.904;4.696;2022-09-23T09:09:50;13.60;99.90
8858;DHT22;4465;50.904;4.696;2022-09-23T09:12:38;13.70;99.90
8858;DHT22;4465;50.904;4.696;2022-09-23T09:17:47;13.90;99.90
8858;DHT22;4465;50.904;4.696;2022-09-23T09:20:28;14.00;99.90
8858;DHT22;4465;50.904;4.696;2022-09-23T09:22:58;14.10;99.90
8858;DHT22;4465;50.904;4.696;2022-09-23T09:31:04;14.40;99.90
8858;DHT22;4465;50.904;4.696;2022-09-23T09:33:39;14.50;99.90
8858;DHT22;4465;50.904;4.696;2022-09-23T09:36:14;14.60;99.90
8858;DHT22;4465;50.904;4.696;2022-09-23T09:38:44;14.80;99.90
8858;DHT22;4465;50.904;4.696;2022-09-23T09:41:15;14.90;99.90
8858;DHT22;4465;50.904;4.696;2022-09-23T09:43:46;15.00;99.90
8858;DHT22;4465;50.904;4.696;2022-09-23T09:46:30;15.10;99.90
8858;DHT22;4465;50.904;4.696;2022-09-23T09:52:25;15.20;99.90
8858;DHT22;4465;50.904;4.696;2022-09-23T09:54:51;15.30;99.90
8858;DHT22;4465;50.904;4.696;2022-09-23T09:57:42;15.40;99.90
8858;DHT22;4465;50.904;4.696;2022-09-23T10:05:27;15.60;99.90
8858;DHT22;4465;50.904;4.696;2022-09-23T10:07:54;15.80;99.90
8858;DHT22;4465;50.904;4.696;2022-09-23T10:10:23;15.80;99.90
8858;DHT22;4465;50.904;4.696;2022-09-23T10:12:50;15.90;99.90
8858;DHT22;4465;50.904;4.696;2022-09-23T10:15:31;16.00;99.90
8858;DHT22;4465;50.904;4.696;2022-09-23T10:17:58;16.00;99.90
8858;DHT22;4465;50.904;4.696;2022-09-23T10:20:34;16.10;99.90
8858;DHT22;4465;50.904;4.696;2022-09-23T10:23:07;16.20;99.90
8858;DHT22;4465;50.904;4.696;2022-09-23T10:25:35;16.40;99.90
8858;DHT22;4465;50.904;4.696;2022-09-23T10:31:07;16.60;99.90
8858;DHT22;4465;50.904;4.696;2022-09-23T10:33:48;16.70;99.90
8858;DHT22;4465;50.904;4.696;2022-09-23T10:36:16;16.80;99.90
8858;DHT22;4465;50.904;4.696;2022-09-23T10:38:42;16.80;99.90
8858;DHT22;4465;50.904;4.696;2022-09-23T10:41:37;16.90;99.90
8858;DHT22;4465;50.904;4.696;2022-09-23T10:48:11;17.10;99.90
8858;DHT22;4465;50.904;4.696;2022-09-23T10:50:48;17.20;99.90
8858;DHT22;4465;50.904;4.696;2022-09-23T11:08:41;17.80;99.90
8858;DHT22;4465;50.904;4.696;2022-09-23T11:11:40;17.90;99.90
8858;DHT22;4465;50.904;4.696;2022-09-23T11:25:55;18.20;99.90
8858;DHT22;4465;50.904;4.696;2022-09-23T11:31:52;18.20;99.90
8858;DHT22;4465;50.904;4.696;2022-09-23T11:34:38;18.30;99.90
8858;DHT22;4465;50.904;4.696;2022-09-23T11:37:10;18.30;99.90
8858;DHT22;4465;50.904;4.696;2022-09-23T11:42:18;18.30;99.90
8858;DHT22;4465;50.904;4.696;2022-09-23T11:44:56;18.30;99.90
8858;DHT22;4465;50.904;4.696;2022-09-23T11:47:29;18.30;99.90
8858;DHT22;4465;50.904;4.696;2022-09-23T11:50:01;18.30;99.90
8858;DHT22;4465;50.904;4.696;2022-09-23T11:52:33;18.30;99.90
8858;DHT22;4465;50.904;4.696;2022-09-23T11:55:22;18.30;99.90
8858;DHT22;4465;50.904;4.696;2022-09-23T11:57:58;18.30;99.90
8858;DHT22;4465;50.904;4.696;2022-09-23T12:00:32;18.30;99.90
8858;DHT22;4465;50.904;4.696;2022-09-23T12:06:09;18.30;99.90
8858;DHT22;4465;50.904;4.696;2022-09-23T12:08:38;18.30;99.90
8858;DHT22;4465;50.904;4.696;2022-09-23T12:17:35;18.40;99.90
8858;DHT22;4465;50.904;4.696;2022-09-23T12:20:07;18.40;99.90
8858;DHT22;4465;50.904;4.696;2022-09-23T12:28:24;18.50;99.90
8858;DHT22;4465;50.904;4.696;2022-09-23T12:30:54;18.50;99.90
8858;DHT22;4465;50.904;4.696;2022-09-23T12:33:26;18.50;99.90
8858;DHT22;4465;50.904;4.696;2022-09-23T12:36:15;18.50;99.90
8858;DHT22;4465;50.904;4.696;2022-09-23T12:38:47;18.50;99.90
8858;DHT22;4465;50.904;4.696;2022-09-23T12:41:34;18.60;99.90
8858;DHT22;4465;50.904;4.696;2022-09-23T12:46:37;18.70;99.90
8858;DHT22;4465;50.904;4.696;2022-09-23T12:49:06;18.70;99.90
8858;DHT22;4465;50.904;4.696;2022-09-23T12:52:12;18.70;99.90
8858;DHT22;4465;50.904;4.696;2022-09-23T12:54:40;18.70;99.90
8858;DHT22;4465;50.904;4.696;2022-09-23T12:57:10;18.70;99.90
8858;DHT22;4465;50.904;4.696;2022-09-23T13:03:01;18.80;99.90
8858;DHT22;4465;50.904;4.696;2022-09-23T13:05:51;18.80;99.90
8858;DHT22;4465;50.904;4.696;2022-09-23T13:08:40;18.80;99.90
8858;DHT22;4465;50.904;4.696;2022-09-23T13:11:29;18.80;99.90
8858;DHT22;4465;50.904;4.696;2022-09-23T13:13:57;18.70;99.90
8858;DHT22;4465;50.904;4.696;2022-09-23T13:16:35;18.70;99.90
8858;DHT22;4465;50.904;4.696;2022-09-23T13:24:34;18.60;99.90
8858;DHT22;4465;50.904;4.696;2022-09-23T13:27:33;18.60;99.90
8858;DHT22;4465;50.904;4.696;2022-09-23T13:30:18;18.60;99.90
8858;DHT22;4465;50.904;4.696;2022-09-23T13:35:46;18.60;99.90
8858;DHT22;4465;50.904;4.696;2022-09-23T13:38:23;18.60;99.90
8858;DHT22;4465;50.904;4.696;2022-09-23T13:40:56;18.60;99.90
8858;DHT22;4465;50.904;4.696;2022-09-23T13:45:55;18.70;99.90
8858;DHT22;4465;50.904;4.696;2022-09-23T13:48:25;18.70;99.90
8858;DHT22;4465;50.904;4.696;2022-09-23T13:50:53;18.70;99.90
8858;DHT22;4465;50.904;4.696;2022-09-23T13:53:26;18.70;99.90
8858;DHT22;4465;50.904;4.696;2022-09-23T13:56:05;18.70;99.90
8858;DHT22;4465;50.904;4.696;2022-09-23T13:58:33;18.70;99.90
8858;DHT22;4465;50.904;4.696;2022-09-23T14:01:00;18.70;99.90
8858;DHT22;4465;50.904;4.696;2022-09-23T14:03:31;18.60;99.90
8858;DHT22;4465;50.904;4.696;2022-09-23T14:06:04;18.60;99.90
8858;DHT22;4465;50.904;4.696;2022-09-23T14:08:31;18.60;99.90
8858;DHT22;4465;50.904;4.696;2022-09-23T14:11:00;18.60;99.90
8858;DHT22;4465;50.904;4.696;2022-09-23T14:13:30;18.60;99.90
8858;DHT22;4465;50.904;4.696;2022-09-23T14:15:59;18.60;99.90
8858;DHT22;4465;50.904;4.696;2022-09-23T14:20:58;18.50;99.90
8858;DHT22;4465;50.904;4.696;2022-09-23T14:23:24;18.50;99.90
8858;DHT22;4465;50.904;4.696;2022-09-23T14:25:51;18.60;99.90
8858;DHT22;4465;50.904;4.696;2022-09-23T14:28:22;18.60;99.90
8858;DHT22;4465;50.904;4.696;2022-09-23T14:30:53;18.60;99.90
8858;DHT22;4465;50.904;4.696;2022-09-23T14:33:32;18.60;99.90
8858;DHT22;4465;50.904;4.696;2022-09-23T14:36:06;18.50;99.90
8858;DHT22;4465;50.904;4.696;2022-09-23T14:39:03;18.60;99.90
8858;DHT22;4465;50.904;4.696;2022-09-23T14:41:34;18.60;99.90
8858;DHT22;4465;50.904;4.696;2022-09-23T14:44:03;18.50;99.90
8858;DHT22;4465;50.904;4.696;2022-09-23T14:46:36;18.50;99.90
8858;DHT22;4465;50.904;4.696;2022-09-23T14:49:11;18.50;99.90
8858;DHT22;4465;50.904;4.696;2022-09-23T14:51:53;18.50;99.90
8858;DHT22;4465;50.904;4.696;2022-09-23T14:54:44;18.50;99.90
8858;DHT22;4465;50.904;4.696;2022-09-23T14:57:25;18.40;99.90
8858;DHT22;4465;50.904;4.696;2022-09-23T15:00:20;18.50;99.90
8858;DHT22;4465;50.904;4.696;2022-09-23T15:03:10;18.40;99.90
8858;DHT22;4465;50.904;4.696;2022-09-23T15:05:43;18.40;99.90
8858;DHT22;4465;50.904;4.696;2022-09-23T15:08:20;18.40;99.90
8858;DHT22;4465;50.904;4.696;2022-09-23T15:10:48;18.40;99.90
8858;DHT22;4465;50.904;4.696;2022-09-23T15:13:27;18.40;99.90
8858;DHT22;4465;50.904;4.696;2022-09-23T15:16:02;18.40;99.90
8858;DHT22;4465;50.904;4.696;2022-09-23T15:18:30;18.40;99.90
8858;DHT22;4465;50.904;4.696;2022-09-23T15:21:17;18.40;99.90
8858;DHT22;4465;50.904;4.696;2022-09-23T15:23:53;18.30;99.90
8858;DHT22;4465;50.904;4.696;2022-09-23T15:26:47;18.30;99.90
8858;DHT22;4465;50.904;4.696;2022-09-23T15:29:17;18.30;99.90
8858;DHT22;4465;50.904;4.696;2022-09-23T15:31:43;18.30;99.90
8858;DHT22;4465;50.904;4.696;2022-09-23T15:34:10;18.30;99.90
8858;DHT22;4465;50.904;4.696;2022-09-23T15:36:35;18.20;99.90
8858;DHT22;4465;50.904;4.696;2022-09-23T15:39:09;18.20;99.90
8858;DHT22;4465;50.904;4.696;2022-09-23T15:41:36;18.20;99.90
8858;DHT22;4465;50.904;4.696;2022-09-23T15:44:14;18.20;99.90
8858;DHT22;4465;50.904;4.696;2022-09-23T15:46:48;18.20;99.90
8858;DHT22;4465;50.904;4.696;2022-09-23T15:51:50;18.20;99.90
8858;DHT22;4465;50.904;4.696;2022-09-23T15:54:17;18.20;99.90
8858;DHT22;4465;50.904;4.696;2022-09-23T15:56:44;18.10;99.90
8858;DHT22;4465;50.904;4.696;2022-09-23T15:59:10;18.10;99.90
8858;DHT22;4465;50.904;4.696;2022-09-23T16:01:37;18.10;99.90
8858;DHT22;4465;50.904;4.696;2022-09-23T16:04:03;18.10;99.90
8858;DHT22;4465;50.904;4.696;2022-09-23T16:06:32;18.10;99.90
8858;DHT22;4465;50.904;4.696;2022-09-23T16:09:00;18.10;99.90
8858;DHT22;4465;50.904;4.696;2022-09-23T16:11:29;18.00;99.90
8858;DHT22;4465;50.904;4.696;2022-09-23T16:13:57;18.00;99.90
8858;DHT22;4465;50.904;4.696;2022-09-23T16:16:24;18.00;99.90
8858;DHT22;4465;50.904;4.696;2022-09-23T16:18:52;18.00;99.90
8858;DHT22;4465;50.904;4.696;2022-09-23T16:21:23;18.00;99.90
8858;DHT22;4465;50.904;4.696;2022-09-23T16:23:49;18.00;99.90
8858;DHT22;4465;50.904;4.696;2022-09-23T16:26:33;17.90;99.90
8858;DHT22;4465;50.904;4.696;2022-09-23T16:29:00;17.90;99.90
8858;DHT22;4465;50.904;4.696;2022-09-23T16:31:27;17.90;99.90
8858;DHT22;4465;50.904;4.696;2022-09-23T16:33:56;17.80;99.90
8858;DHT22;4465;50.904;4.696;2022-09-23T16:36:39;17.80;99.90
8858;DHT22;4465;50.904;4.696;2022-09-23T16:39:09;17.80;99.90
8858;DHT22;4465;50.904;4.696;2022-09-23T16:41:36;17.80;99.90
8858;DHT22;4465;50.904;4.696;2022-09-23T16:44:04;17.70;99.90
8858;DHT22;4465;50.904;4.696;2022-09-23T16:46:32;17.70;99.90
8858;DHT22;4465;50.904;4.696;2022-09-23T16:48:59;17.70;99.90
8858;DHT22;4465;50.904;4.696;2022-09-23T16:51:28;17.70;99.90
8858;DHT22;4465;50.904;4.696;2022-09-23T16:53:56;17.60;99.90
8858;DHT22;4465;50.904;4.696;2022-09-23T16:56:24;17.70;99.90
8858;DHT22;4465;50.904;4.696;2022-09-23T16:58:53;17.60;99.90
8858;DHT22;4465;50.904;4.696;2022-09-23T17:01:32;17.60;99.90
8858;DHT22;4465;50.904;4.696;2022-09-23T17:04:17;17.50;99.90
8858;DHT22;4465;50.904;4.696;2022-09-23T17:06:45;17.50;99.90
8858;DHT22;4465;50.904;4.696;2022-09-23T17:09:16;17.50;99.90
8858;DHT22;4465;50.904;4.696;2022-09-23T17:11:44;17.50;99.90
8858;DHT22;4465;50.904;4.696;2022-09-23T17:14:14;17.40;99.90
8858;DHT22;4465;50.904;4.696;2022-09-23T17:16:41;17.40;99.90
8858;DHT22;4465;50.904;4.696;2022-09-23T17:19:09;17.40;99.90
8858;DHT22;4465;50.904;4.696;2022-09-23T17:21:40;17.30;99.90
8858;DHT22;4465;50.904;4.696;2022-09-23T17:24:07;17.30;99.90
8858;DHT22;4465;50.904;4.696;2022-09-23T17:26:33;17.20;99.90
8858;DHT22;4465;50.904;4.696;2022-09-23T17:29:02;17.20;99.90
8858;DHT22;4465;50.904;4.696;2022-09-23T17:31:29;17.20;99.90
8858;DHT22;4465;50.904;4.696;2022-09-23T17:33:55;17.10;99.90
8858;DHT22;4465;50.904;4.696;2022-09-23T17:36:21;17.00;99.90
8858;DHT22;4465;50.904;4.696;2022-09-23T17:38:48;17.00;99.90
8858;DHT22;4465;50.904;4.696;2022-09-23T17:41:15;16.90;99.90
8858;DHT22;4465;50.904;4.696;2022-09-23T17:43:42;16.90;99.90
8858;DHT22;4465;50.904;4.696;2022-09-23T17:46:11;16.90;99.90
8858;DHT22;4465;50.904;4.696;2022-09-23T17:48:42;16.80;99.90
8858;DHT22;4465;50.904;4.696;2022-09-23T17:51:14;16.80;99.90
8858;DHT22;4465;50.904;4.696;2022-09-23T17:53:42;16.70;99.90
8858;DHT22;4465;50.904;4.696;2022-09-23T17:56:19;16.70;99.90
8858;DHT22;4465;50.904;4.696;2022-09-23T17:58:46;16.60;99.90
8858;DHT22;4465;50.904;4.696;2022-09-23T18:01:15;16.60;99.90
8858;DHT22;4465;50.904;4.696;2022-09-23T18:03:42;16.50;99.90
8858;DHT22;4465;50.904;4.696;2022-09-23T18:06:17;16.50;99.90
8858;DHT22;4465;50.904;4.696;2022-09-23T18:08:45;16.40;99.90
8858;DHT22;4465;50.904;4.696;2022-09-23T18:13:56;16.30;99.90
8858;DHT22;4465;50.904;4.696;2022-09-23T18:16:25;16.30;99.90
8858;DHT22;4465;50.904;4.696;2022-09-23T18:18:53;16.20;99.90
8858;DHT22;4465;50.904;4.696;2022-09-23T18:21:21;16.20;99.90
8858;DHT22;4465;50.904;4.696;2022-09-23T18:23:49;16.20;99.90
8858;DHT22;4465;50.904;4.696;2022-09-23T18:26:22;16.20;99.90
8858;DHT22;4465;50.904;4.696;2022-09-23T18:28:49;16.10;99.90
8858;DHT22;4465;50.904;4.696;2022-09-23T18:31:18;16.10;99.90
8858;DHT22;4465;50.904;4.696;2022-09-23T18:33:51;16.10;99.90
8858;DHT22;4465;50.904;4.696;2022-09-23T18:36:18;16.10;99.90
8858;DHT22;4465;50.904;4.696;2022-09-23T18:38:45;16.00;99.90
8858;DHT22;4465;50.904;4.696;2022-09-23T18:41:14;16.00;99.90
8858;DHT22;4465;50.904;4.696;2022-09-23T18:43:40;15.90;99.90
8858;DHT22;4465;50.904;4.696;2022-09-23T18:46:21;15.90;99.90
8858;DHT22;4465;50.904;4.696;2022-09-23T18:48:50;15.90;99.90
8858;DHT22;4465;50.904;4.696;2022-09-23T18:51:37;15.90;99.90
8858;DHT22;4465;50.904;4.696;2022-09-23T18:54:05;15.80;99.90
8858;DHT22;4465;50.904;4.696;2022-09-23T18:56:42;15.80;99.90
8858;DHT22;4465;50.904;4.696;2022-09-23T18:59:13;15.80;99.90